Terminal Aerodrome Forecast
Issued by NWS Duluth, MN

Home | Current Version | Previous Version | Text Only | Print | Product List | Glossary On
Versions: 1 2 3 4 5 6 7 8 9 10 11 12 13 14
000
FTUS43 KDLH 021100
TAFDLH
TAF
KDLH 021136Z 0212/0312 19006KT P6SM SCT120
     FM021800 20012KT P6SM SCT120
     FM022300 12004KT P6SM SCT100=

USA.gov is the U.S. government's official web portal to all federal, state and local government web resources and services.